Time;durP1;ratioP1;P1;durP2;ratioP2;P2;SDS_P1;SDS_P2;PMS_P1;PMS_P2;Temp;Humidity;BMP_temperature;BMP_pressure;BME280_temperature;BME280_humidity;BME280_pressure;Samples;Min_cycle;Max_cycle;Signal;HPM_P1;HPM_P2
2021/01/07 00:01:40;;;;;;;10.30;8.07;;;2.50;98.30;;;;;;5121556;23;20206;-83
2021/01/07 00:03:42;;;;;;;10.23;8.05;;;2.50;98.30;;;;;;5126695;23;20681;-83
2021/01/07 00:05:44;;;;;;;7.57;6.53;;;2.40;98.30;;;;;;5118231;23;20206;-83
2021/01/07 00:07:46;;;;;;;9.55;7.43;;;2.40;98.30;;;;;;5127029;23;20205;-83
2021/01/07 00:09:49;;;;;;;7.57;6.55;;;2.40;98.30;;;;;;5126649;23;20207;-84
2021/01/07 00:11:52;;;;;;;9.50;7.65;;;2.40;98.30;;;;;;5117983;23;20242;-84
2021/01/07 00:13:54;;;;;;;9.68;7.38;;;2.40;98.30;;;;;;5126555;23;21008;-83
2021/01/07 00:16:01;;;;;;;8.73;6.85;;;2.30;98.30;;;;;;5127908;23;20209;-83
2021/01/07 00:18:04;;;;;;;9.15;7.85;;;2.30;98.30;;;;;;5128142;23;20222;-83
2021/01/07 00:20:08;;;;;;;9.07;7.72;;;2.30;98.30;;;;;;5120135;23;20314;-83
2021/01/07 06:31:31;;;;;;;8.20;5.90;;;2.30;98.30;;;;;;5088059;22;20994;-84
2021/01/07 06:33:33;;;;;;;8.15;6.00;;;2.30;98.30;;;;;;5144800;23;20606;-81
2021/01/07 06:35:38;;;;;;;7.65;5.60;;;2.30;98.30;;;;;;5138373;23;20202;-83
2021/01/07 06:37:41;;;;;;;7.70;5.95;;;2.30;98.30;;;;;;5146530;23;20209;-83
2021/01/07 06:39:44;;;;;;;8.10;5.65;;;2.20;98.30;;;;;;5147065;23;20241;-83
2021/01/07 06:41:54;;;;;;;9.27;6.13;;;2.20;98.30;;;;;;5138464;23;20206;-83
2021/01/07 06:43:57;;;;;;;8.95;6.05;;;2.30;98.30;;;;;;5113445;23;20221;-83
2021/01/07 06:45:59;;;;;;;7.50;5.40;;;2.30;98.30;;;;;;5122246;23;20524;-83
2021/01/07 06:48:05;;;;;;;8.77;6.40;;;2.30;98.30;;;;;;5122542;23;20237;-83
2021/01/07 06:50:08;;;;;;;8.10;6.40;;;2.30;98.30;;;;;;5124763;23;20202;-83
2021/01/07 06:52:10;;;;;;;8.75;6.10;;;2.30;98.30;;;;;;5125898;23;20211;-81
2021/01/07 06:54:13;;;;;;;9.13;5.93;;;2.40;98.30;;;;;;5132882;23;20214;-82
2021/01/07 06:56:18;;;;;;;9.70;5.95;;;2.40;98.30;;;;;;5121093;23;20214;-83
2021/01/07 06:58:20;;;;;;;8.18;6.00;;;2.40;98.30;;;;;;5116301;23;20226;-83
2021/01/07 07:00:25;;;;;;;9.27;6.20;;;2.40;98.30;;;;;;5116155;23;20210;-83
2021/01/07 07:02:30;;;;;;;9.05;7.05;;;2.30;98.30;;;;;;5117110;23;20234;-82
2021/01/07 07:04:34;;;;;;;9.40;6.10;;;2.30;98.30;;;;;;5117272;23;20213;-84
2021/01/07 07:06:51;;;;;;;8.32;5.47;;;2.30;98.30;;;;;;5117783;23;20784;-84
2021/01/07 07:08:53;;;;;;;10.40;7.30;;;2.30;98.30;;;;;;5125169;23;20209;-84
2021/01/07 07:10:55;;;;;;;8.00;5.63;;;2.30;98.30;;;;;;5125417;23;20202;-83
2021/01/07 07:12:57;;;;;;;8.20;6.28;;;2.30;98.30;;;;;;5126102;23;20544;-83
2021/01/07 07:14:59;;;;;;;10.23;7.18;;;2.40;98.30;;;;;;5117074;23;20698;-82
2021/01/07 07:17:07;;;;;;;8.35;5.75;;;2.40;98.30;;;;;;5117130;23;20697;-81
2021/01/07 07:19:09;;;;;;;8.30;6.10;;;2.30;98.30;;;;;;5116602;23;20536;-83
2021/01/07 07:21:24;;;;;;;9.77;6.65;;;2.30;98.30;;;;;;5125060;23;20205;-84
2021/01/07 07:23:27;;;;;;;9.95;6.82;;;2.30;98.30;;;;;;5116464;23;20206;-83
2021/01/07 07:25:29;;;;;;;10.60;7.40;;;2.30;98.30;;;;;;5124406;23;20285;-84
2021/01/07 07:27:46;;;;;;;8.00;6.00;;;2.40;98.30;;;;;;5125046;23;20202;-82
2021/01/07 07:29:49;;;;;;;8.02;5.93;;;2.30;98.30;;;;;;5116798;23;20218;-84
2021/01/07 07:31:53;;;;;;;8.40;5.80;;;2.30;98.30;;;;;;5117002;23;20225;-83
2021/01/07 07:34:01;;;;;;;8.88;6.65;;;2.20;98.30;;;;;;5116834;23;20207;-84
2021/01/07 07:36:03;;;;;;;9.88;7.00;;;2.30;98.30;;;;;;5116812;23;20210;-83
2021/01/07 07:38:10;;;;;;;11.55;7.25;;;2.30;98.30;;;;;;5116033;23;20434;-83
2021/01/07 07:40:26;;;;;;;9.18;6.65;;;2.30;98.30;;;;;;5125143;23;20257;-82
2021/01/07 07:42:32;;;;;;;9.02;6.85;;;2.20;98.30;;;;;;5116107;23;20238;-83
2021/01/07 07:44:34;;;;;;;9.68;7.35;;;2.30;98.30;;;;;;5125022;23;20208;-83
2021/01/07 07:46:38;;;;;;;8.85;6.65;;;2.30;98.30;;;;;;5118272;23;20302;-86
2021/01/07 07:49:01;;;;;;;9.77;6.90;;;2.20;98.30;;;;;;5126127;23;20207;-88
2021/01/07 07:51:09;;;;;;;7.40;6.30;;;2.20;98.30;;;;;;5124900;23;20202;-88
2021/01/07 07:53:16;;;;;;;8.52;6.63;;;2.10;98.30;;;;;;5125504;23;20214;-87
2021/01/07 07:55:18;;;;;;;8.13;5.85;;;2.10;98.30;;;;;;5124689;23;20569;-87
2021/01/07 07:57:20;;;;;;;8.57;6.20;;;2.10;98.30;;;;;;5126505;23;20221;-88
2021/01/07 07:59:25;;;;;;;10.35;6.28;;;2.10;98.30;;;;;;5123959;23;20207;-88
2021/01/07 08:01:35;;;;;;;8.57;6.10;;;2.10;98.30;;;;;;5128078;23;20207;-87
2021/01/07 08:03:37;;;;;;;8.68;6.43;;;2.10;98.30;;;;;;5124041;23;20202;-88
2021/01/07 08:05:39;;;;;;;10.93;8.13;;;2.10;98.30;;;;;;5121886;23;20789;-88
2021/01/07 08:07:51;;;;;;;8.00;6.13;;;2.10;98.30;;;;;;5122113;23;20209;-87
2021/01/07 08:10:05;;;;;;;12.73;7.03;;;2.10;98.30;;;;;;5122468;23;20273;-87
2021/01/07 08:12:08;;;;;;;9.23;6.90;;;2.20;98.30;;;;;;5122695;23;20199;-85
2021/01/07 08:14:11;;;;;;;11.25;7.32;;;2.20;98.30;;;;;;5125440;23;20202;-85
2021/01/07 08:16:20;;;;;;;8.93;6.10;;;2.30;98.30;;;;;;5132587;23;20209;-85
2021/01/07 08:18:24;;;;;;;8.43;6.65;;;2.30;98.30;;;;;;5132444;23;20221;-85
2021/01/07 08:20:26;;;;;;;8.45;5.90;;;2.20;98.30;;;;;;5133489;23;20270;-85
2021/01/07 08:22:29;;;;;;;9.38;6.38;;;2.20;98.30;;;;;;5126445;23;20214;-84
2021/01/07 08:24:31;;;;;;;8.20;6.30;;;2.20;98.30;;;;;;5130491;23;20237;-85
2021/01/07 08:26:35;;;;;;;9.75;6.93;;;2.10;98.30;;;;;;5131014;23;20528;-85
2021/01/07 08:28:41;;;;;;;9.00;6.93;;;2.10;98.30;;;;;;5129804;23;20234;-85
2021/01/07 08:30:49;;;;;;;9.90;6.63;;;2.20;98.30;;;;;;5130746;23;20298;-84
2021/01/07 08:32:57;;;;;;;9.02;6.65;;;2.20;98.30;;;;;;5123819;23;20240;-84
2021/01/07 08:34:59;;;;;;;13.60;8.15;;;2.30;98.30;;;;;;5115975;23;20233;-84
2021/01/07 08:37:12;;;;;;;9.88;7.47;;;2.20;98.30;;;;;;5124060;23;20286;-84
2021/01/07 08:39:15;;;;;;;10.55;6.85;;;2.20;98.30;;;;;;5115771;23;20213;-85
2021/01/07 08:41:30;;;;;;;10.35;7.43;;;2.20;98.30;;;;;;5123393;23;20202;-84
2021/01/07 08:43:33;;;;;;;11.43;7.30;;;2.10;98.30;;;;;;5123757;23;20213;-85
2021/01/07 08:45:35;;;;;;;9.15;6.53;;;2.10;98.30;;;;;;5123644;23;20289;-85
2021/01/07 08:47:38;;;;;;;9.02;6.25;;;2.10;98.30;;;;;;5123565;23;20264;-85
2021/01/07 08:49:40;;;;;;;10.07;7.43;;;2.10;98.30;;;;;;5123711;23;20736;-85
2021/01/07 08:51:43;;;;;;;11.20;7.22;;;2.10;98.30;;;;;;5123330;23;20206;-85
2021/01/07 08:53:50;;;;;;;10.25;7.00;;;2.10;98.30;;;;;;5123664;23;20241;-84
2021/01/07 08:55:52;;;;;;;10.48;7.53;;;2.10;98.30;;;;;;5123609;23;20203;-85
2021/01/07 08:58:02;;;;;;;11.93;7.75;;;2.10;98.30;;;;;;5124310;23;20229;-85
2021/01/07 09:00:14;;;;;;;13.35;8.20;;;2.10;98.30;;;;;;5115487;23;20238;-84
2021/01/07 09:02:19;;;;;;;10.57;7.55;;;2.10;98.30;;;;;;5123458;23;21030;-85
2021/01/07 09:04:26;;;;;;;9.10;7.03;;;2.10;98.30;;;;;;5115533;23;20739;-85
2021/01/07 09:06:28;;;;;;;10.70;7.72;;;2.20;98.30;;;;;;5123998;23;20234;-84
2021/01/07 09:08:30;;;;;;;12.18;8.27;;;2.20;98.30;;;;;;5115381;23;20672;-84
2021/01/07 09:10:32;;;;;;;37.75;20.17;;;2.30;98.30;;;;;;5123638;23;20281;-83
2021/01/07 09:12:35;;;;;;;16.60;9.80;;;2.30;98.30;;;;;;5123751;23;20235;-84
2021/01/07 09:15:05;;;;;;;16.98;9.63;;;2.50;98.30;;;;;;5123916;23;20285;-84
2021/01/07 09:17:07;;;;;;;12.05;8.10;;;2.40;98.30;;;;;;5097724;23;20256;-85
2021/01/07 09:19:09;;;;;;;11.73;7.38;;;2.40;98.30;;;;;;5123682;23;20202;-85
2021/01/07 09:21:14;;;;;;;11.10;8.10;;;2.30;98.30;;;;;;5123501;23;20213;-85
2021/01/07 09:23:16;;;;;;;12.30;8.35;;;2.30;98.30;;;;;;5123803;23;20214;-85
2021/01/07 09:25:19;;;;;;;14.43;9.93;;;2.20;98.30;;;;;;5123212;23;20281;-85
2021/01/07 09:27:22;;;;;;;13.10;9.90;;;2.20;98.30;;;;;;5123884;23;20210;-86
2021/01/07 09:29:24;;;;;;;15.15;10.18;;;2.30;98.30;;;;;;5123207;23;20222;-84
2021/01/07 09:31:26;;;;;;;21.25;11.45;;;2.30;98.30;;;;;;5123598;23;20654;-85
2021/01/07 09:33:29;;;;;;;26.38;16.65;;;2.40;98.30;;;;;;5123658;23;20234;-85
2021/01/07 09:35:31;;;;;;;51.45;29.40;;;2.50;98.30;;;;;;5115483;23;20198;-85
2021/01/07 09:37:36;;;;;;;19.73;10.98;;;2.50;98.30;;;;;;5123668;23;20199;-85
2021/01/07 09:39:38;;;;;;;13.75;9.80;;;2.50;98.30;;;;;;5123248;23;20717;-84
2021/01/07 09:41:40;;;;;;;13.95;9.38;;;2.40;98.30;;;;;;5123218;23;20689;-84
2021/01/07 09:43:45;;;;;;;15.60;9.82;;;2.40;98.30;;;;;;5114867;23;20241;-85
2021/01/07 09:45:49;;;;;;;16.92;10.10;;;2.30;98.30;;;;;;5123419;23;20206;-85
2021/01/07 09:47:51;;;;;;;14.93;8.65;;;2.30;98.30;;;;;;5123160;23;20231;-85
2021/01/07 09:49:56;;;;;;;18.95;12.02;;;2.30;98.30;;;;;;5123866;23;20206;-84
2021/01/07 09:51:58;;;;;;;42.05;24.60;;;2.30;98.30;;;;;;5115523;23;20289;-84
2021/01/07 09:54:00;;;;;;;30.95;18.83;;;2.40;98.30;;;;;;5123757;23;20290;-84
2021/01/07 09:56:03;;;;;;;49.72;28.40;;;2.60;98.30;;;;;;5115284;23;20232;-87
2021/01/07 09:58:07;;;;;;;15.23;8.88;;;2.70;98.30;;;;;;5123237;23;20213;-87
2021/01/07 10:00:11;;;;;;;11.40;7.80;;;2.60;98.30;;;;;;5115039;23;20272;-88
2021/01/07 10:02:14;;;;;;;13.40;8.43;;;2.40;98.30;;;;;;5123033;23;20206;-87
2021/01/07 10:04:24;;;;;;;12.98;9.43;;;2.30;98.30;;;;;;5115325;23;20630;-87
2021/01/07 10:06:27;;;;;;;13.27;9.52;;;2.30;98.30;;;;;;5123353;23;20286;-88
2021/01/07 10:08:31;;;;;;;12.60;9.15;;;2.20;98.30;;;;;;5123284;23;20213;-87
2021/01/07 10:10:36;;;;;;;12.63;8.85;;;2.30;98.30;;;;;;5123511;23;20308;-87
2021/01/07 10:12:38;;;;;;;12.65;8.40;;;2.30;98.30;;;;;;5123181;23;20250;-87
2021/01/07 10:14:40;;;;;;;12.68;9.85;;;2.30;98.30;;;;;;5115143;23;20203;-88
2021/01/07 10:16:49;;;;;;;11.35;8.20;;;2.30;98.30;;;;;;5123195;23;20206;-88
2021/01/07 10:18:51;;;;;;;13.95;8.75;;;2.30;98.30;;;;;;5123021;23;20198;-88
2021/01/07 10:20:56;;;;;;;12.98;8.88;;;2.30;98.30;;;;;;5123607;23;20592;-87
2021/01/07 10:23:00;;;;;;;11.07;8.27;;;2.30;98.30;;;;;;5115166;23;20212;-86
2021/01/07 10:25:06;;;;;;;13.70;9.32;;;2.30;98.30;;;;;;5124276;23;20237;-88
2021/01/07 10:27:10;;;;;;;11.75;8.48;;;2.30;98.30;;;;;;5125331;23;20207;-87
2021/01/07 10:29:12;;;;;;;13.48;8.82;;;2.30;98.30;;;;;;5116902;23;20297;-87
2021/01/07 10:31:17;;;;;;;12.40;7.63;;;2.40;98.30;;;;;;5116565;23;20211;-88
2021/01/07 10:33:20;;;;;;;12.27;8.55;;;2.40;98.30;;;;;;5100543;23;20206;-88
2021/01/07 10:35:23;;;;;;;11.10;7.57;;;2.40;98.30;;;;;;5100751;23;20701;-87
2021/01/07 10:37:27;;;;;;;11.25;8.30;;;2.40;98.30;;;;;;5101075;23;20231;-87
2021/01/07 10:39:35;;;;;;;11.65;7.70;;;2.40;98.30;;;;;;5100573;23;20205;-87
2021/01/07 10:41:44;;;;;;;12.13;8.05;;;2.40;98.30;;;;;;5100150;23;20688;-87
2021/01/07 10:43:47;;;;;;;12.98;9.57;;;2.30;98.30;;;;;;5100113;23;20948;-87
2021/01/07 10:45:53;;;;;;;13.30;8.77;;;2.20;98.30;;;;;;5100368;23;20239;-87
2021/01/07 10:48:04;;;;;;;11.88;8.00;;;2.20;98.30;;;;;;5091868;23;20282;-86
2021/01/07 10:50:14;;;;;;;13.93;8.77;;;2.30;98.30;;;;;;5092734;23;20211;-87
2021/01/07 10:52:33;;;;;;;12.52;8.30;;;2.30;98.30;;;;;;5100293;23;20913;-86
2021/01/07 10:54:46;;;;;;;14.25;9.32;;;2.20;98.30;;;;;;5100368;23;20214;-87
2021/01/07 10:57:11;;;;;;;11.70;7.80;;;2.20;98.30;;;;;;5091825;23;20215;-87
2021/01/07 10:59:30;;;;;;;12.93;8.82;;;2.20;98.30;;;;;;5099960;23;20269;-87
2021/01/07 11:02:04;;;;;;;17.77;12.13;;;2.20;98.30;;;;;;5100019;23;20207;-87
2021/01/07 11:04:21;;;;;;;32.40;18.70;;;2.20;98.30;;;;;;5100378;23;20199;-86
2021/01/07 11:06:29;;;;;;;23.15;14.90;;;2.20;98.30;;;;;;5091873;23;20298;-87
2021/01/07 11:08:38;;;;;;;19.58;9.23;;;2.20;98.30;;;;;;5100979;23;20250;-87
2021/01/07 11:10:44;;;;;;;15.98;9.13;;;2.30;98.30;;;;;;5100099;23;20203;-85
2021/01/07 11:12:58;;;;;;;12.60;9.57;;;2.20;98.30;;;;;;5099838;23;20594;-87
2021/01/07 11:15:03;;;;;;;13.50;9.45;;;2.20;98.30;;;;;;5100271;23;20219;-88
2021/01/07 11:17:11;;;;;;;12.90;8.95;;;2.30;98.30;;;;;;5091701;23;20266;-87
2021/01/07 11:19:20;;;;;;;12.10;8.65;;;2.30;98.30;;;;;;5099336;23;20602;-87
2021/01/07 11:21:27;;;;;;;12.57;8.40;;;2.30;98.30;;;;;;5100093;23;20203;-88
2021/01/07 11:23:29;;;;;;;13.32;8.82;;;2.30;98.30;;;;;;5092150;23;20218;-87
2021/01/07 11:25:34;;;;;;;15.30;10.27;;;2.30;98.30;;;;;;5100336;23;20217;-87
2021/01/07 11:27:37;;;;;;;15.00;9.82;;;2.30;98.30;;;;;;5100045;23;20222;-87
2021/01/07 11:29:40;;;;;;;12.90;9.63;;;2.20;98.30;;;;;;5100196;23;20203;-88
2021/01/07 11:31:44;;;;;;;12.88;8.80;;;2.10;98.30;;;;;;5096744;23;20941;-87
2021/01/07 11:33:50;;;;;;;12.60;8.98;;;2.10;98.30;;;;;;5125187;23;20280;-86
2021/01/07 11:35:53;;;;;;;15.70;9.05;;;2.20;98.30;;;;;;5124925;23;20278;-88
2021/01/07 11:37:59;;;;;;;12.85;8.60;;;2.20;98.30;;;;;;5116410;23;20964;-88
2021/01/07 11:40:09;;;;;;;12.55;8.07;;;2.20;98.30;;;;;;5116841;23;20202;-87
2021/01/07 11:42:24;;;;;;;14.90;9.23;;;2.20;98.30;;;;;;5125187;23;20209;-87
2021/01/07 11:44:37;;;;;;;13.00;8.23;;;2.10;98.30;;;;;;5124509;23;20205;-87
2021/01/07 11:46:41;;;;;;;17.85;11.20;;;2.10;98.30;;;;;;5116209;23;20219;-87
2021/01/07 11:48:46;;;;;;;14.60;9.00;;;2.10;98.30;;;;;;5124307;23;20252;-86
2021/01/07 11:50:58;;;;;;;21.35;13.05;;;2.20;98.30;;;;;;5124453;23;20271;-87
2021/01/07 11:53:01;;;;;;;23.15;12.90;;;2.20;98.30;;;;;;5124166;23;20206;-87
2021/01/07 11:55:03;;;;;;;18.92;9.18;;;2.10;98.30;;;;;;5116032;23;20207;-86
2021/01/07 11:57:07;;;;;;;14.80;9.90;;;2.10;98.30;;;;;;5124191;23;20226;-87
2021/01/07 11:59:14;;;;;;;14.88;9.40;;;2.10;98.30;;;;;;5123627;23;20245;-86
2021/01/07 12:01:22;;;;;;;16.35;9.10;;;2.00;98.30;;;;;;5126367;23;20225;-86
2021/01/07 12:03:28;;;;;;;12.77;8.45;;;2.00;98.30;;;;;;5136939;23;20225;-86
2021/01/07 12:05:30;;;;;;;15.68;8.13;;;2.00;98.30;;;;;;5136003;23;20206;-86
2021/01/07 12:07:43;;;;;;;16.95;11.18;;;2.00;98.30;;;;;;5136627;23;20210;-86
2021/01/07 12:09:46;;;;;;;17.95;9.70;;;2.10;98.30;;;;;;5136225;23;20222;-85
2021/01/07 12:12:03;;;;;;;14.55;8.13;;;2.00;98.30;;;;;;5135831;23;20206;-86
2021/01/07 12:14:11;;;;;;;13.20;8.65;;;2.10;98.30;;;;;;5136298;23;20210;-85
2021/01/07 12:16:24;;;;;;;14.98;9.80;;;2.00;98.30;;;;;;5136397;23;20281;-86
2021/01/07 12:18:27;;;;;;;14.70;9.13;;;2.00;98.30;;;;;;5136019;23;20658;-86
2021/01/07 12:20:34;;;;;;;14.13;10.18;;;2.10;98.30;;;;;;5135284;23;20206;-86
2021/01/07 12:22:37;;;;;;;13.45;9.00;;;2.10;98.30;;;;;;5136144;23;20206;-86
2021/01/07 12:24:39;;;;;;;16.75;8.90;;;2.10;98.30;;;;;;5134860;23;20265;-86
2021/01/07 12:26:47;;;;;;;13.45;8.40;;;2.00;98.30;;;;;;5134586;23;20206;-85
2021/01/07 12:28:53;;;;;;;13.55;9.05;;;2.00;98.30;;;;;;5125410;23;20265;-86
2021/01/07 12:31:04;;;;;;;15.40;10.38;;;2.00;98.30;;;;;;5125836;23;20674;-86
2021/01/07 12:33:26;;;;;;;23.73;12.50;;;2.00;98.30;;;;;;5133232;23;20237;-86
2021/01/07 12:35:34;;;;;;;23.83;14.93;;;2.00;98.30;;;;;;5125734;23;20198;-85
2021/01/07 12:37:50;;;;;;;22.58;9.25;;;2.00;98.30;;;;;;5125509;23;20206;-85
2021/01/07 12:40:06;;;;;;;17.80;9.70;;;2.00;98.30;;;;;;5125414;23;20289;-86
2021/01/07 12:42:13;;;;;;;14.02;9.15;;;2.00;98.30;;;;;;5124760;23;20206;-85
2021/01/07 12:44:16;;;;;;;11.43;9.30;;;2.00;98.30;;;;;;5124690;23;20277;-85
2021/01/07 12:46:24;;;;;;;18.02;11.20;;;2.10;98.30;;;;;;5116435;23;20210;-85
2021/01/07 12:48:28;;;;;;;17.90;10.30;;;2.10;98.30;;;;;;5115202;23;20281;-85
2021/01/07 12:50:33;;;;;;;16.13;10.63;;;2.10;98.30;;;;;;5124547;23;20210;-85
2021/01/07 12:52:42;;;;;;;28.60;11.90;;;2.10;98.30;;;;;;5123976;23;20262;-85
2021/01/07 12:54:54;;;;;;;18.20;11.15;;;2.20;98.30;;;;;;5124487;23;20206;-86
2021/01/07 12:57:03;;;;;;;24.52;11.35;;;2.20;98.30;;;;;;5124722;23;20639;-85
2021/01/07 12:59:12;;;;;;;18.38;10.30;;;2.30;98.30;;;;;;5124153;23;20281;-85
2021/01/07 13:01:22;;;;;;;15.52;11.88;;;2.20;98.30;;;;;;5116012;23;20280;-85
2021/01/07 13:03:35;;;;;;;16.60;9.75;;;2.10;98.30;;;;;;5123486;23;20229;-86
2021/01/07 13:05:40;;;;;;;14.93;9.25;;;2.10;98.30;;;;;;5124175;23;20233;-86
2021/01/07 13:07:43;;;;;;;14.18;9.98;;;2.10;98.30;;;;;;5115899;23;20206;-85
2021/01/07 13:09:47;;;;;;;16.65;11.68;;;2.10;98.30;;;;;;5124406;23;20199;-85
2021/01/07 13:11:51;;;;;;;14.18;9.95;;;2.10;98.30;;;;;;5124218;23;20206;-85
2021/01/07 13:13:54;;;;;;;16.58;11.05;;;2.20;98.30;;;;;;5124011;23;20206;-85
2021/01/07 13:15:56;;;;;;;15.77;9.98;;;2.20;98.30;;;;;;5124060;23;20195;-86
2021/01/07 13:17:58;;;;;;;15.90;10.48;;;2.30;98.30;;;;;;5123966;23;20214;-85
2021/01/07 13:20:01;;;;;;;17.10;9.48;;;2.40;98.30;;;;;;5124394;23;20888;-86
2021/01/07 13:22:04;;;;;;;19.10;9.98;;;2.30;98.30;;;;;;5124366;23;20237;-85
2021/01/07 13:24:09;;;;;;;28.83;12.50;;;2.30;98.30;;;;;;5123920;23;20206;-85
2021/01/07 13:26:13;;;;;;;17.23;9.45;;;2.40;98.30;;;;;;5124339;23;20305;-86
2021/01/07 13:28:15;;;;;;;17.30;10.07;;;2.40;98.30;;;;;;5124238;23;20195;-85
2021/01/07 13:30:18;;;;;;;17.38;10.20;;;2.40;98.30;;;;;;5124402;23;20203;-85
2021/01/07 13:32:21;;;;;;;14.93;9.60;;;2.30;98.30;;;;;;5123825;23;20206;-86
2021/01/07 13:34:26;;;;;;;15.48;9.50;;;2.30;98.30;;;;;;5124677;23;20205;-85
2021/01/07 13:36:30;;;;;;;19.65;10.02;;;2.30;98.30;;;;;;5125593;23;20313;-85
2021/01/07 13:38:32;;;;;;;16.45;10.02;;;2.20;98.30;;;;;;5124604;23;20211;-85
2021/01/07 13:40:35;;;;;;;37.20;21.88;;;2.20;98.30;;;;;;5124914;23;20286;-85
2021/01/07 13:42:42;;;;;;;115.18;64.95;;;2.10;98.30;;;;;;5124842;23;20202;-85
2021/01/07 13:44:48;;;;;;;14.82;10.35;;;2.10;98.30;;;;;;5125454;23;20226;-86
2021/01/07 13:46:50;;;;;;;15.15;9.30;;;2.20;98.30;;;;;;5125714;23;20232;-85
2021/01/07 13:49:00;;;;;;;13.15;9.13;;;2.10;98.30;;;;;;5117321;23;20202;-86
2021/01/07 13:51:04;;;;;;;17.45;9.23;;;2.10;98.30;;;;;;5125758;23;20209;-86
2021/01/07 13:53:09;;;;;;;19.85;11.27;;;2.10;98.30;;;;;;5126375;23;20209;-84
2021/01/07 13:55:13;;;;;;;18.50;10.23;;;2.20;98.30;;;;;;5126848;23;20206;-84
2021/01/07 13:57:15;;;;;;;16.55;9.65;;;2.20;98.30;;;;;;5126266;23;20277;-86
2021/01/07 13:59:17;;;;;;;15.43;10.13;;;2.10;98.30;;;;;;5127680;23;20207;-85
2021/01/07 14:01:20;;;;;;;14.02;10.18;;;2.10;98.30;;;;;;5140060;23;20202;-85
2021/01/07 14:03:22;;;;;;;16.75;11.70;;;2.10;98.30;;;;;;5125163;23;20202;-85
2021/01/07 14:05:27;;;;;;;90.95;54.67;;;2.10;98.30;;;;;;5126317;23;20206;-86
2021/01/07 14:07:34;;;;;;;26.25;16.98;;;2.20;98.30;;;;;;5129936;23;20674;-86
2021/01/07 14:09:41;;;;;;;29.23;16.70;;;2.20;98.30;;;;;;5137950;23;20209;-86
2021/01/07 14:11:48;;;;;;;16.30;9.35;;;2.20;98.30;;;;;;5141115;23;20206;-86
2021/01/07 14:13:50;;;;;;;16.05;10.55;;;2.30;98.30;;;;;;5128878;23;20218;-85
2021/01/07 14:15:53;;;;;;;18.80;11.27;;;2.20;98.30;;;;;;5124512;23;20201;-85
2021/01/07 14:17:57;;;;;;;18.90;12.10;;;2.20;98.30;;;;;;5123869;23;20202;-85
2021/01/07 14:20:02;;;;;;;16.48;10.30;;;2.30;98.30;;;;;;5123839;23;20205;-85
2021/01/07 14:22:05;;;;;;;14.73;10.45;;;2.20;98.30;;;;;;5123841;23;20205;-85
2021/01/07 14:24:11;;;;;;;17.35;10.77;;;2.20;98.30;;;;;;5115881;23;20218;-85
2021/01/07 14:26:21;;;;;;;16.60;9.95;;;2.20;98.30;;;;;;5123454;23;20268;-85
2021/01/07 14:28:26;;;;;;;17.55;12.55;;;2.30;98.30;;;;;;5115780;23;20206;-84
2021/01/07 14:30:29;;;;;;;14.93;10.13;;;2.20;98.30;;;;;;5116265;23;20210;-85
2021/01/07 14:32:34;;;;;;;15.35;10.65;;;2.20;98.30;;;;;;5123268;23;20582;-85
2021/01/07 14:34:38;;;;;;;18.33;11.65;;;2.20;98.30;;;;;;5123926;23;20213;-85
2021/01/07 14:36:41;;;;;;;17.00;11.30;;;2.20;98.30;;;;;;5115642;23;20208;-85
2021/01/07 14:38:44;;;;;;;19.77;12.50;;;2.30;98.30;;;;;;5123149;23;20222;-85
2021/01/07 14:40:46;;;;;;;22.17;14.20;;;2.30;98.30;;;;;;5123533;23;20229;-85
2021/01/07 14:42:50;;;;;;;16.90;11.10;;;2.30;98.30;;;;;;5123566;23;20210;-85
2021/01/07 14:44:52;;;;;;;21.35;12.70;;;2.20;98.30;;;;;;5123569;23;20244;-85
2021/01/07 14:46:58;;;;;;;33.80;13.63;;;2.10;98.30;;;;;;5123132;23;20229;-84
2021/01/07 14:49:04;;;;;;;20.30;12.15;;;2.20;98.30;;;;;;5123293;23;20222;-85
2021/01/07 14:51:07;;;;;;;32.25;13.60;;;2.10;98.30;;;;;;5123321;23;20592;-85
2021/01/07 14:53:14;;;;;;;19.15;11.95;;;2.10;98.30;;;;;;5123239;23;20982;-85
2021/01/07 14:55:18;;;;;;;18.50;11.30;;;2.00;98.30;;;;;;5114739;23;20654;-85
2021/01/07 14:57:42;;;;;;;32.78;12.52;;;2.00;98.30;;;;;;5123200;23;20243;-85
2021/01/07 14:59:54;;;;;;;29.00;13.23;;;2.10;98.30;;;;;;5123819;23;20225;-84
2021/01/07 15:02:13;;;;;;;21.00;11.70;;;2.00;98.30;;;;;;5123178;23;20220;-85
2021/01/07 15:04:25;;;;;;;35.22;13.98;;;2.00;98.30;;;;;;5114930;23;20273;-85
2021/01/07 15:06:32;;;;;;;20.67;12.10;;;2.00;98.30;;;;;;5123145;23;20241;-86
2021/01/07 15:08:39;;;;;;;24.90;11.75;;;2.00;98.30;;;;;;5115174;23;20207;-85
2021/01/07 15:10:43;;;;;;;138.13;25.13;;;1.90;98.30;;;;;;5123220;23;20198;-84
2021/01/07 15:12:52;;;;;;;35.42;14.00;;;2.00;98.30;;;;;;5125068;23;20194;-85
2021/01/07 15:15:01;;;;;;;28.73;12.68;;;2.00;98.30;;;;;;5125167;23;20202;-85
2021/01/07 15:17:17;;;;;;;28.83;13.00;;;1.90;98.30;;;;;;5125340;23;20289;-85
2021/01/07 15:19:36;;;;;;;57.97;15.20;;;2.00;98.30;;;;;;5125096;23;20202;-85
2021/01/07 15:22:00;;;;;;;32.95;13.27;;;1.90;98.30;;;;;;5125291;23;20210;-85
2021/01/07 15:24:11;;;;;;;44.17;15.48;;;1.90;98.30;;;;;;5125089;23;20592;-85
2021/01/07 15:26:19;;;;;;;41.60;16.63;;;1.90;98.30;;;;;;5124799;23;20206;-86
2021/01/07 15:28:30;;;;;;;41.17;15.30;;;1.80;98.30;;;;;;5125319;23;20198;-85
2021/01/07 15:30:40;;;;;;;28.02;14.50;;;1.80;98.30;;;;;;5125170;23;20202;-85
2021/01/07 15:33:01;;;;;;;63.35;34.92;;;1.80;98.30;;;;;;5125338;23;20210;-85
2021/01/07 15:35:10;;;;;;;34.40;15.73;;;1.80;98.30;;;;;;5124900;23;20206;-85
2021/01/07 15:37:31;;;;;;;44.30;14.18;;;1.80;98.30;;;;;;5125688;23;20220;-85
2021/01/07 15:40:16;;;;;;;43.53;15.10;;;1.90;98.30;;;;;;5126734;23;20206;-85
2021/01/07 15:43:14;;;;;;;34.83;12.68;;;1.80;98.30;;;;;;5126285;23;20241;-85
2021/01/07 15:45:57;;;;;;;52.97;19.90;;;1.80;98.30;;;;;;5127473;23;20281;-85
2021/01/07 15:48:29;;;;;;;31.27;14.63;;;1.80;98.30;;;;;;5112781;23;20594;-85
2021/01/07 15:50:35;;;;;;;45.15;17.08;;;1.80;98.30;;;;;;5126406;23;20630;-85
2021/01/07 15:53:00;;;;;;;23.10;15.02;;;1.90;98.30;;;;;;5125770;23;20214;-85
2021/01/07 15:55:17;;;;;;;43.30;18.13;;;1.90;98.30;;;;;;5125728;23;20206;-85
2021/01/07 15:57:47;;;;;;;27.95;17.92;;;2.00;98.30;;;;;;5125798;23;20277;-85
2021/01/07 15:59:56;;;;;;;58.55;19.30;;;1.90;98.30;;;;;;5125796;23;20202;-85
2021/01/07 16:02:00;;;;;;;56.90;22.95;;;2.00;98.30;;;;;;5125667;23;20297;-84
2021/01/07 16:04:10;;;;;;;58.85;26.30;;;2.00;98.30;;;;;;5125383;23;20205;-85
2021/01/07 16:06:21;;;;;;;39.42;16.60;;;2.00;98.30;;;;;;5125387;23;20206;-85
2021/01/07 16:08:24;;;;;;;36.97;15.50;;;2.00;98.30;;;;;;5125682;23;20712;-85
2021/01/07 16:10:29;;;;;;;57.35;18.88;;;2.00;98.30;;;;;;5125795;23;20543;-85
2021/01/07 16:12:36;;;;;;;45.03;23.73;;;2.00;98.30;;;;;;5125988;23;20549;-85
2021/01/07 16:14:39;;;;;;;55.35;16.23;;;2.00;98.30;;;;;;5126185;23;20257;-85
2021/01/07 16:16:43;;;;;;;52.83;16.52;;;2.10;98.30;;;;;;5128604;23;20205;-85
2021/01/07 16:18:46;;;;;;;36.47;13.85;;;2.10;98.30;;;;;;5132265;23;20206;-86
2021/01/07 16:20:49;;;;;;;78.38;17.95;;;2.00;98.30;;;;;;5132482;23;20202;-85
2021/01/07 16:22:56;;;;;;;25.63;15.43;;;2.00;98.30;;;;;;5124153;23;20262;-86
2021/01/07 16:25:04;;;;;;;59.10;18.08;;;2.00;98.30;;;;;;5124698;23;20229;-86
2021/01/07 16:27:14;;;;;;;35.50;14.75;;;1.90;98.30;;;;;;5132428;23;20206;-86
2021/01/07 16:29:16;;;;;;;32.72;15.45;;;1.90;98.30;;;;;;5133399;23;20794;-85
2021/01/07 16:31:18;;;;;;;34.13;15.98;;;1.80;98.30;;;;;;5132600;23;20210;-86
2021/01/07 16:33:20;;;;;;;44.92;16.13;;;1.90;98.30;;;;;;5132748;23;20203;-86
2021/01/07 16:35:23;;;;;;;54.83;17.38;;;2.00;98.30;;;;;;5133657;23;20233;-86
2021/01/07 16:37:26;;;;;;;44.97;17.00;;;1.90;98.30;;;;;;5132430;23;20351;-86
2021/01/07 16:39:31;;;;;;;41.03;15.70;;;1.90;98.30;;;;;;5131905;23;20218;-85
2021/01/07 16:41:37;;;;;;;27.42;14.93;;;1.90;98.30;;;;;;5132638;23;20207;-86
2021/01/07 16:43:40;;;;;;;35.20;15.40;;;1.80;98.30;;;;;;5132406;23;20254;-86
2021/01/07 16:45:42;;;;;;;54.80;15.88;;;1.90;98.30;;;;;;5133176;23;20209;-86
2021/01/07 16:47:44;;;;;;;30.70;15.77;;;1.90;98.30;;;;;;5124815;23;20211;-86
2021/01/07 16:49:46;;;;;;;29.48;14.82;;;1.90;98.30;;;;;;5133726;23;20195;-86
2021/01/07 16:51:50;;;;;;;23.58;14.15;;;1.90;98.30;;;;;;5132856;23;20408;-85
2021/01/07 16:53:52;;;;;;;50.53;16.35;;;1.90;98.30;;;;;;5132185;23;20198;-86
2021/01/07 16:55:55;;;;;;;23.25;13.95;;;2.00;98.30;;;;;;5126632;23;20213;-85
2021/01/07 16:57:56;;;;;;;107.55;57.05;;;1.90;98.30;;;;;;5132521;23;20209;-86
2021/01/07 16:59:59;;;;;;;38.80;20.60;;;2.00;98.30;;;;;;5133187;23;20207;-86
2021/01/07 17:02:01;;;;;;;31.25;17.23;;;2.10;98.30;;;;;;5134210;23;20202;-85
2021/01/07 17:04:04;;;;;;;36.28;16.05;;;2.10;98.30;;;;;;5126610;23;20207;-87
2021/01/07 17:06:06;;;;;;;24.95;15.10;;;2.10;98.30;;;;;;5126188;23;20210;-85
2021/01/07 17:08:09;;;;;;;65.57;17.02;;;2.00;98.30;;;;;;5133232;23;20202;-86